Time;durP1;ratioP1;P1;durP2;ratioP2;P2;SDS_P1;SDS_P2;PMS_P1;PMS_P2;Temp;Humidity;BMP_temperature;BMP_pressure;BME280_temperature;BME280_humidity;BME280_pressure;Samples;Min_cycle;Max_cycle;Signal;HPM_P1;HPM_P2
2022/05/24 00:00:06;;;;;;;3.50;2.58;;;15.70;83.80;;;;;;1937918;74;21060;-59
2022/05/24 00:02:36;;;;;;;4.08;2.87;;;15.70;83.60;;;;;;1936788;74;21154;-59
2022/05/24 00:05:08;;;;;;;2.72;2.45;;;15.70;83.60;;;;;;1937785;74;21029;-59
2022/05/24 00:07:39;;;;;;;2.60;2.40;;;15.70;83.60;;;;;;1937945;74;21107;-59
2022/05/24 00:10:10;;;;;;;3.47;2.35;;;15.60;83.60;;;;;;1937803;74;21028;-59
2022/05/24 00:12:40;;;;;;;2.98;2.45;;;15.60;83.60;;;;;;1937950;74;21005;-59
2022/05/24 00:15:27;;;;;;;4.97;2.50;;;15.60;83.50;;;;;;1937820;74;21092;-59
2022/05/24 00:18:01;;;;;;;2.70;2.10;;;15.70;83.60;;;;;;1937873;74;21052;-59
2022/05/24 00:20:34;;;;;;;3.12;2.27;;;15.70;83.60;;;;;;1937897;74;21084;-59
2022/05/24 00:23:04;;;;;;;2.47;2.12;;;15.60;83.60;;;;;;1937977;74;21114;-59
2022/05/24 00:25:36;;;;;;;2.40;1.70;;;15.60;83.50;;;;;;1937831;74;21005;-59
2022/05/24 00:28:06;;;;;;;3.12;2.20;;;15.60;83.60;;;;;;1937945;74;21033;-59
2022/05/24 00:30:36;;;;;;;4.95;2.42;;;15.50;83.50;;;;;;1937975;74;21141;-59
2022/05/24 00:33:06;;;;;;;3.70;2.15;;;15.40;84.10;;;;;;1937837;74;21024;-59
2022/05/24 00:35:35;;;;;;;2.90;1.98;;;15.40;83.70;;;;;;1938023;74;21126;-59
2022/05/24 00:38:07;;;;;;;3.98;2.12;;;15.40;83.80;;;;;;1938029;74;21045;-60
2022/05/24 00:40:48;;;;;;;3.70;2.02;;;15.40;83.70;;;;;;1938083;74;21122;-59
2022/05/24 00:43:32;;;;;;;2.72;2.05;;;15.40;83.70;;;;;;1937975;74;21025;-59
2022/05/24 00:46:10;;;;;;;2.10;1.80;;;15.30;83.80;;;;;;1937987;74;21153;-59
2022/05/24 00:48:48;;;;;;;3.62;2.25;;;15.30;83.80;;;;;;1937294;73;21122;-59
2022/05/24 00:51:20;;;;;;;3.70;2.40;;;15.30;83.90;;;;;;1937980;74;21102;-59
2022/05/24 00:53:52;;;;;;;2.42;2.00;;;15.20;83.90;;;;;;1936827;74;21095;-59
2022/05/24 00:56:23;;;;;;;3.55;2.40;;;15.20;84.00;;;;;;1937955;74;21036;-59
2022/05/24 00:58:59;;;;;;;4.47;2.50;;;15.20;84.10;;;;;;1935649;74;21158;-59
2022/05/24 01:01:38;;;;;;;4.62;2.60;;;15.20;84.10;;;;;;1938064;74;21061;-59
2022/05/24 01:04:16;;;;;;;2.83;2.52;;;15.20;84.20;;;;;;1936741;74;21049;-59
2022/05/24 01:06:41;;;;;;;4.47;2.72;;;15.30;84.20;;;;;;1936942;74;21114;-59
2022/05/24 01:09:16;;;;;;;4.87;2.90;;;15.30;84.20;;;;;;1938050;74;21084;-59
2022/05/24 01:11:48;;;;;;;5.33;3.65;;;15.30;84.10;;;;;;1938067;74;21541;-59
2022/05/24 01:14:19;;;;;;;4.58;2.58;;;15.30;84.10;;;;;;1938048;74;21491;-59
2022/05/24 01:16:50;;;;;;;3.35;2.37;;;15.30;84.10;;;;;;1937920;74;21049;-59
2022/05/24 01:19:33;;;;;;;3.42;2.33;;;15.30;84.10;;;;;;1937879;74;21029;-59
2022/05/24 01:22:05;;;;;;;4.15;2.22;;;15.30;84.10;;;;;;1938045;74;21107;-58
2022/05/24 01:24:38;;;;;;;4.55;2.20;;;15.30;84.10;;;;;;1936015;74;21110;-59
2022/05/24 01:27:07;;;;;;;3.67;2.42;;;15.30;84.10;;;;;;1937538;73;21514;-59
2022/05/24 01:29:36;;;;;;;4.87;2.72;;;15.30;84.10;;;;;;1937866;74;21021;-59
2022/05/24 01:37:41;;;;;;;3.42;2.42;;;15.20;84.10;;;;;;1937838;74;21178;-59
2022/05/24 01:40:10;;;;;;;5.05;2.47;;;15.10;84.20;;;;;;1937928;74;21024;-59
2022/05/24 01:42:39;;;;;;;5.05;2.47;;;15.10;84.60;;;;;;1937983;74;21005;-59
2022/05/24 01:45:34;;;;;;;4.22;2.45;;;15.10;84.60;;;;;;1937972;74;21448;-59
2022/05/24 01:48:06;;;;;;;2.50;2.30;;;15.00;84.80;;;;;;1898047;74;21017;-59
2022/05/24 01:50:37;;;;;;;2.42;2.22;;;15.00;84.90;;;;;;1863993;76;21023;-59
2022/05/24 01:53:12;;;;;;;2.55;2.33;;;15.00;85.00;;;;;;1922908;74;21095;-59
2022/05/24 01:55:47;;;;;;;2.70;2.50;;;15.00;85.00;;;;;;1898106;75;21502;-59
2022/05/24 01:58:20;;;;;;;2.37;2.00;;;14.90;85.00;;;;;;1897628;75;21036;-59
2022/05/24 02:00:52;;;;;;;2.65;2.45;;;14.80;85.10;;;;;;1897894;75;21000;-59
2022/05/24 02:03:24;;;;;;;2.67;2.10;;;14.80;85.30;;;;;;1897510;75;21023;-59
2022/05/24 02:05:56;;;;;;;2.17;1.98;;;14.90;85.50;;;;;;1897999;75;21019;-59
2022/05/24 02:08:25;;;;;;;2.67;2.12;;;14.90;85.30;;;;;;1897977;75;21031;-59
2022/05/24 02:11:02;;;;;;;1.82;1.70;;;14.90;85.30;;;;;;1897878;75;20988;-59
2022/05/24 02:13:38;;;;;;;13.28;4.37;;;15.00;85.20;;;;;;1897896;75;21098;-58
2022/05/24 02:16:10;;;;;;;2.00;1.80;;;15.00;85.00;;;;;;1898017;75;21031;-59
2022/05/24 02:18:42;;;;;;;2.72;1.50;;;15.00;84.80;;;;;;1897870;75;20976;-58
2022/05/24 02:21:11;;;;;;;2.90;1.75;;;15.00;84.70;;;;;;1897834;75;21131;-58
2022/05/24 02:23:43;;;;;;;2.17;1.98;;;15.00;84.70;;;;;;1897788;75;21137;-58
2022/05/24 02:26:13;;;;;;;3.08;1.70;;;15.00;84.80;;;;;;1897691;75;21020;-58
2022/05/24 02:28:43;;;;;;;3.33;1.47;;;15.00;84.80;;;;;;1897910;75;21003;-58
2022/05/24 02:31:17;;;;;;;2.60;1.70;;;15.00;84.60;;;;;;1897874;75;21055;-58
2022/05/24 02:33:47;;;;;;;1.42;1.25;;;14.90;84.50;;;;;;1897960;75;21101;-58
2022/05/24 02:36:18;;;;;;;3.50;1.30;;;14.90;84.70;;;;;;1897925;75;21134;-58
2022/05/24 02:38:48;;;;;;;1.22;1.12;;;14.90;84.70;;;;;;1897808;75;20992;-58
2022/05/24 02:41:29;;;;;;;1.67;1.57;;;14.80;84.70;;;;;;1897852;74;21020;-58
2022/05/24 02:44:04;;;;;;;4.12;1.67;;;14.80;84.80;;;;;;1897921;75;20996;-58
2022/05/24 02:46:35;;;;;;;4.17;1.57;;;14.80;84.80;;;;;;1896352;75;21485;-58
2022/05/24 02:49:05;;;;;;;4.90;1.60;;;14.80;84.90;;;;;;1891515;76;21039;-58
2022/05/24 02:51:35;;;;;;;2.30;1.77;;;14.80;84.80;;;;;;1891703;76;21018;-58
2022/05/24 02:54:04;;;;;;;3.00;1.82;;;14.80;84.90;;;;;;1891665;75;21054;-58
2022/05/24 02:56:34;;;;;;;2.00;1.80;;;14.90;85.10;;;;;;1891477;76;21050;-58
2022/05/24 02:59:05;;;;;;;2.00;1.90;;;14.90;85.20;;;;;;1891526;76;21120;-58
2022/05/24 03:01:35;;;;;;;4.75;1.90;;;14.80;85.00;;;;;;1891645;76;21054;-58
2022/05/24 03:04:04;;;;;;;2.95;1.67;;;14.90;85.10;;;;;;1891468;74;21050;-58
2022/05/24 03:09:33;;;;;;;3.60;1.90;;;14.90;85.20;;;;;;1891669;76;21148;-58
2022/05/24 03:14:41;;;;;;;5.10;2.62;;;14.80;85.20;;;;;;1891652;76;21125;-58
2022/05/24 03:17:10;;;;;;;5.50;2.50;;;14.70;85.10;;;;;;1891498;75;21050;-58
2022/05/24 03:19:39;;;;;;;3.22;2.50;;;14.70;85.30;;;;;;1891540;76;21062;-58
2022/05/24 03:22:09;;;;;;;7.03;2.90;;;14.70;85.50;;;;;;1891635;75;21124;-58
2022/05/24 03:24:38;;;;;;;5.72;2.47;;;14.70;85.80;;;;;;1891342;76;21018;-58
2022/05/24 03:27:14;;;;;;;2.95;2.47;;;14.70;86.10;;;;;;1891530;76;21098;-58
2022/05/24 03:29:45;;;;;;;2.70;2.50;;;14.70;85.90;;;;;;1891328;76;21058;-58
2022/05/24 03:32:16;;;;;;;6.37;2.60;;;14.70;86.10;;;;;;1890918;76;21148;-58
2022/05/24 03:34:45;;;;;;;3.92;2.67;;;14.80;86.30;;;;;;1891145;76;21042;-58
2022/05/24 03:37:14;;;;;;;2.58;2.37;;;14.80;86.40;;;;;;1891247;76;21035;-58
2022/05/24 03:39:44;;;;;;;2.58;2.37;;;14.80;86.30;;;;;;1891526;76;21014;-58
2022/05/24 03:42:13;;;;;;;2.90;2.60;;;14.90;86.20;;;;;;1891531;76;21046;-58
2022/05/24 03:44:42;;;;;;;2.35;2.05;;;14.90;86.10;;;;;;1891517;76;21054;-59
2022/05/24 03:47:11;;;;;;;1.90;1.70;;;14.90;86.10;;;;;;1891488;75;21135;-58
2022/05/24 03:49:41;;;;;;;3.92;1.62;;;15.00;86.00;;;;;;1891480;76;21116;-58
2022/05/24 03:52:10;;;;;;;2.55;1.95;;;15.10;86.00;;;;;;1891607;76;21035;-59
2022/05/24 03:54:39;;;;;;;1.72;1.62;;;15.10;85.90;;;;;;1891628;76;21042;-58
2022/05/24 03:59:56;;;;;;;2.10;1.90;;;15.10;85.90;;;;;;1891638;76;21023;-58
2022/05/24 04:02:25;;;;;;;3.67;1.90;;;15.10;86.00;;;;;;1891619;76;21112;-58
2022/05/24 04:04:54;;;;;;;2.50;1.62;;;15.20;86.10;;;;;;1891484;76;21003;-58
2022/05/24 04:07:24;;;;;;;2.70;2.20;;;15.20;85.90;;;;;;1891548;76;21042;-58
2022/05/24 04:09:53;;;;;;;5.05;2.40;;;15.30;85.90;;;;;;1891490;74;21066;-58
2022/05/24 04:12:22;;;;;;;2.37;2.17;;;15.30;85.90;;;;;;1891504;76;21038;-58
2022/05/24 04:14:51;;;;;;;2.40;2.15;;;15.40;86.00;;;;;;1891499;76;21097;-58
2022/05/24 04:17:21;;;;;;;3.62;1.98;;;15.50;85.80;;;;;;1891423;76;21038;-58
2022/05/24 04:19:50;;;;;;;2.47;2.27;;;15.60;85.90;;;;;;1891446;76;21018;-58
2022/05/24 04:22:19;;;;;;;4.00;3.65;;;15.60;85.50;;;;;;1891294;76;21046;-58
2022/05/24 04:24:49;;;;;;;2.55;1.98;;;15.70;85.30;;;;;;1891472;76;21116;-58
2022/05/24 04:27:18;;;;;;;6.03;3.75;;;15.70;85.10;;;;;;1891256;76;21112;-58
2022/05/24 04:29:48;;;;;;;2.98;1.87;;;15.70;85.00;;;;;;1891361;75;21058;-58
2022/05/24 04:32:17;;;;;;;1.87;1.62;;;15.70;85.10;;;;;;1891465;74;21132;-58
2022/05/24 04:34:47;;;;;;;3.50;1.67;;;15.70;85.00;;;;;;1891419;76;21047;-58
2022/05/24 04:37:16;;;;;;;1.90;1.80;;;15.70;85.00;;;;;;1891615;75;21108;-58
2022/05/24 04:39:46;;;;;;;2.92;2.37;;;15.70;85.10;;;;;;1891388;76;21046;-58
2022/05/24 04:42:25;;;;;;;4.87;2.58;;;15.80;85.10;;;;;;1891433;75;21553;-58
2022/05/24 04:44:57;;;;;;;15.13;2.67;;;15.80;85.00;;;;;;1891371;76;21116;-58
2022/05/24 04:47:28;;;;;;;3.20;1.98;;;15.80;85.00;;;;;;1891340;75;21070;-58
2022/05/24 04:50:00;;;;;;;3.77;1.47;;;15.90;85.10;;;;;;1891465;76;21038;-58
2022/05/24 04:52:36;;;;;;;2.22;1.45;;;16.00;85.10;;;;;;1891279;76;21098;-58
2022/05/24 04:55:08;;;;;;;2.27;2.02;;;16.10;85.00;;;;;;1891644;76;21120;-57
2022/05/24 04:57:38;;;;;;;1.75;1.20;;;16.30;84.70;;;;;;1891318;76;21058;-58
2022/05/24 05:00:13;;;;;;;2.65;1.27;;;16.40;83.70;;;;;;1891515;76;21020;-57
2022/05/24 05:02:39;;;;;;;2.92;1.00;;;16.40;83.10;;;;;;1890780;76;21535;-58
2022/05/24 05:05:09;;;;;;;1.25;1.10;;;16.50;82.70;;;;;;1891319;76;21086;-58
2022/05/24 05:07:42;;;;;;;1.57;1.40;;;16.70;82.50;;;;;;1891404;74;21120;-58
2022/05/24 05:10:11;;;;;;;3.98;2.17;;;16.70;82.30;;;;;;1890985;74;21042;-58
2022/05/24 05:12:40;;;;;;;1.92;1.10;;;16.70;82.10;;;;;;1891639;76;21489;-60
2022/05/24 05:15:10;;;;;;;1.62;1.40;;;16.70;81.90;;;;;;1891531;76;21096;-57
2022/05/24 05:17:40;;;;;;;3.72;1.80;;;16.80;81.50;;;;;;1891495;76;21062;-57
2022/05/24 05:20:10;;;;;;;8.33;1.65;;;16.80;81.20;;;;;;1891495;76;21038;-58
2022/05/24 05:22:39;;;;;;;1.60;1.22;;;16.80;81.20;;;;;;1891690;76;21116;-60
2022/05/24 05:25:09;;;;;;;2.05;1.45;;;16.80;80.80;;;;;;1891626;76;21042;-58
2022/05/24 05:27:39;;;;;;;1.30;0.90;;;16.70;80.80;;;;;;1891555;76;21151;-57
2022/05/24 05:32:56;;;;;;;3.47;1.30;;;16.70;79.40;;;;;;1891561;75;21477;-58
2022/05/24 05:35:25;;;;;;;4.70;2.17;;;16.60;79.60;;;;;;1891470;76;21127;-57
2022/05/24 05:37:55;;;;;;;4.47;1.65;;;16.70;79.90;;;;;;1891589;74;21120;-58
2022/05/24 05:40:24;;;;;;;2.52;1.37;;;16.60;79.90;;;;;;1891609;76;21019;-58
2022/05/24 05:42:54;;;;;;;5.53;1.37;;;16.70;80.00;;;;;;1891452;76;21082;-57
2022/05/24 05:45:25;;;;;;;1.90;1.40;;;16.60;79.50;;;;;;1891484;76;21062;-57
2022/05/24 05:47:54;;;;;;;4.95;1.95;;;16.60;79.10;;;;;;1891338;74;21018;-58
2022/05/24 05:50:25;;;;;;;4.42;1.70;;;16.60;79.10;;;;;;1891037;76;21061;-57
2022/05/24 05:52:54;;;;;;;9.08;1.60;;;16.60;79.50;;;;;;1891364;76;21120;-58
2022/05/24 05:55:25;;;;;;;2.35;1.10;;;16.60;79.30;;;;;;1891866;76;21038;-58
2022/05/24 05:57:54;;;;;;;3.77;1.30;;;16.60;79.30;;;;;;1891709;76;21050;-58
2022/05/24 06:00:24;;;;;;;1.45;1.10;;;16.60;79.70;;;;;;1891643;76;21039;-57
2022/05/24 06:02:52;;;;;;;1.85;1.27;;;16.60;78.50;;;;;;1891429;76;21058;-57
2022/05/24 06:05:21;;;;;;;1.95;1.57;;;16.70;78.60;;;;;;1891556;76;21043;-58
2022/05/24 06:07:51;;;;;;;2.20;1.62;;;16.60;78.30;;;;;;1891516;75;21027;-58
2022/05/24 06:10:20;;;;;;;3.40;1.45;;;16.60;78.50;;;;;;1891579;75;21128;-57
2022/05/24 06:12:51;;;;;;;3.35;2.00;;;16.60;78.50;;;;;;1891551;76;21124;-57
2022/05/24 06:15:25;;;;;;;3.00;2.30;;;16.70;78.50;;;;;;1891627;76;21046;-57
2022/05/24 06:17:54;;;;;;;1.45;1.35;;;16.70;78.50;;;;;;1891636;76;21062;-58
2022/05/24 06:20:27;;;;;;;3.75;1.50;;;16.70;78.00;;;;;;1891144;76;21105;-58
2022/05/24 06:22:57;;;;;;;3.47;1.52;;;16.70;77.90;;;;;;1891596;76;21050;-58
2022/05/24 06:25:29;;;;;;;5.28;1.60;;;16.70;78.00;;;;;;1891404;76;21115;-57
2022/05/24 06:27:59;;;;;;;2.27;1.40;;;16.70;78.20;;;;;;1891639;76;21120;-58
2022/05/24 06:30:28;;;;;;;2.02;1.52;;;16.80;78.40;;;;;;1891441;76;21018;-58
2022/05/24 06:32:58;;;;;;;3.75;1.57;;;16.80;78.10;;;;;;1891602;76;21050;-58
2022/05/24 06:35:34;;;;;;;1.40;1.20;;;16.90;78.00;;;;;;1821870;77;21129;-57
2022/05/24 06:38:04;;;;;;;3.92;1.60;;;16.80;77.70;;;;;;1848862;77;21014;-58
2022/05/24 06:40:33;;;;;;;1.10;1.00;;;16.90;78.10;;;;;;1848725;77;21135;-57
2022/05/24 06:43:03;;;;;;;1.52;1.15;;;16.90;78.60;;;;;;1848839;76;21077;-58
2022/05/24 06:45:35;;;;;;;3.10;1.42;;;17.10;78.70;;;;;;1848726;75;21064;-58
2022/05/24 06:48:05;;;;;;;3.47;1.20;;;17.20;78.90;;;;;;1848762;78;21042;-58
2022/05/24 06:50:35;;;;;;;2.12;1.30;;;17.30;78.90;;;;;;1848753;77;21034;-59
2022/05/24 06:53:04;;;;;;;2.30;1.67;;;17.50;78.70;;;;;;1848774;78;21449;-59
2022/05/24 06:55:33;;;;;;;3.98;2.35;;;17.60;78.10;;;;;;1848815;77;21022;-59
2022/05/24 06:58:03;;;;;;;5.80;2.25;;;17.70;77.70;;;;;;1848703;77;21089;-59
2022/05/24 07:03:20;;;;;;;3.25;2.33;;;17.80;77.60;;;;;;1851290;76;21054;-59
2022/05/24 07:05:50;;;;;;;4.35;2.65;;;17.90;77.20;;;;;;1862129;76;21058;-59
2022/05/24 07:08:22;;;;;;;6.17;1.42;;;18.00;76.60;;;;;;1858773;76;21105;-59
2022/05/24 07:10:52;;;;;;;2.90;1.20;;;18.00;75.90;;;;;;1858715;76;21113;-59
2022/05/24 07:13:21;;;;;;;4.78;1.85;;;18.00;75.90;;;;;;1849310;76;21035;-58
2022/05/24 07:15:51;;;;;;;1.57;1.47;;;18.00;76.20;;;;;;1853434;76;21096;-58
2022/05/24 07:18:20;;;;;;;1.22;1.10;;;18.10;76.40;;;;;;1852936;76;21046;-58
2022/05/24 07:20:49;;;;;;;10.43;1.60;;;18.20;76.00;;;;;;1818845;78;21024;-58
2022/05/24 07:23:21;;;;;;;8.95;1.50;;;18.20;75.40;;;;;;1840950;76;22359;-59
2022/05/24 07:25:50;;;;;;;1.62;1.32;;;18.30;75.60;;;;;;1857066;77;21149;-58
2022/05/24 07:28:20;;;;;;;2.75;1.12;;;18.40;75.30;;;;;;1862549;76;21030;-59
2022/05/24 07:30:50;;;;;;;4.47;1.72;;;18.60;74.20;;;;;;1862074;76;21461;-59
2022/05/24 07:33:34;;;;;;;3.27;1.57;;;18.60;74.30;;;;;;1873041;76;21097;-58
2022/05/24 07:36:07;;;;;;;2.37;1.75;;;18.70;73.80;;;;;;1883297;73;21053;-58
2022/05/24 07:38:37;;;;;;;3.65;1.72;;;18.90;73.70;;;;;;1888301;76;21108;-58
2022/05/24 07:46:34;;;;;;;3.15;1.75;;;19.30;72.50;;;;;;1836020;78;21043;-58
2022/05/24 07:49:04;;;;;;;1.95;1.12;;;19.50;71.70;;;;;;1888485;76;21001;-58
2022/05/24 07:51:34;;;;;;;5.60;1.42;;;19.40;70.90;;;;;;1888371;76;21151;-59
2022/05/24 07:54:03;;;;;;;1.90;1.50;;;19.30;69.90;;;;;;1886175;76;21202;-60
2022/05/24 07:56:32;;;;;;;9.10;1.60;;;19.00;69.10;;;;;;1887512;76;21181;-58
2022/05/24 07:59:02;;;;;;;5.75;1.77;;;18.60;70.20;;;;;;1885571;76;21583;-57
2022/05/24 08:01:31;;;;;;;3.67;1.70;;;18.20;71.60;;;;;;1887787;76;21010;-58
2022/05/24 08:04:00;;;;;;;6.72;2.52;;;17.90;73.10;;;;;;1887750;76;21042;-59
2022/05/24 08:06:30;;;;;;;13.18;5.25;;;17.70;75.00;;;;;;1887907;76;21066;-61
2022/05/24 08:08:59;;;;;;;10.68;4.28;;;17.50;75.50;;;;;;1887628;76;21093;-60
2022/05/24 08:11:29;;;;;;;14.63;4.58;;;17.30;76.30;;;;;;1887832;76;21074;-57
2022/05/24 08:13:59;;;;;;;11.00;3.87;;;17.00;76.70;;;;;;1887868;76;21129;-58
2022/05/24 08:16:28;;;;;;;6.53;3.85;;;16.80;77.60;;;;;;1887690;76;21140;-60
2022/05/24 08:18:58;;;;;;;10.75;4.17;;;16.70;78.20;;;;;;1887568;76;21091;-57
2022/05/24 08:21:28;;;;;;;4.20;2.58;;;16.70;79.20;;;;;;1885969;76;21069;-55
2022/05/24 08:23:57;;;;;;;3.80;2.80;;;16.60;79.10;;;;;;1886170;76;21034;-57
2022/05/24 08:26:27;;;;;;;3.27;2.22;;;16.40;79.30;;;;;;1887370;76;21097;-56
2022/05/24 08:28:56;;;;;;;7.42;3.27;;;16.40;79.50;;;;;;1887672;76;21076;-57
2022/05/24 08:31:26;;;;;;;10.75;7.12;;;16.30;80.20;;;;;;1887450;76;21133;-58
2022/05/24 08:33:57;;;;;;;4.58;3.35;;;16.30;80.90;;;;;;1887947;76;21025;-60
2022/05/24 08:36:26;;;;;;;9.20;3.80;;;16.40;80.50;;;;;;1893966;75;21061;-57
2022/05/24 08:38:56;;;;;;;5.53;3.15;;;16.50;80.80;;;;;;1897129;75;21109;-57
2022/05/24 08:41:40;;;;;;;8.48;3.42;;;16.60;81.00;;;;;;1882976;75;21025;-59
2022/05/24 08:49:55;;;;;;;5.35;3.72;;;16.90;81.60;;;;;;1879241;75;21107;-58
2022/05/24 08:52:27;;;;;;;4.20;3.02;;;17.00;81.40;;;;;;1880492;75;21057;-60
2022/05/24 08:54:58;;;;;;;5.17;3.37;;;17.10;81.40;;;;;;1865069;77;21026;-58
2022/05/24 08:57:36;;;;;;;6.83;3.25;;;17.20;81.30;;;;;;1864969;77;21191;-58
2022/05/24 09:00:10;;;;;;;13.30;9.40;;;17.30;81.00;;;;;;1859795;76;21065;-58
2022/05/24 09:02:41;;;;;;;6.17;2.75;;;17.30;81.00;;;;;;1865123;77;21096;-58
2022/05/24 09:05:16;;;;;;;8.33;2.90;;;17.20;81.10;;;;;;1882374;75;21131;-60
2022/05/24 09:07:50;;;;;;;2.83;2.50;;;17.20;81.80;;;;;;1886299;75;21036;-60
2022/05/24 09:10:22;;;;;;;4.33;2.50;;;17.30;82.50;;;;;;1896605;75;21106;-58
2022/05/24 09:13:19;;;;;;;2.33;2.00;;;17.20;82.50;;;;;;1881209;74;21041;-57
2022/05/24 09:16:02;;;;;;;3.95;2.77;;;17.20;82.20;;;;;;1870711;75;21093;-58
2022/05/24 09:19:01;;;;;;;2.50;2.17;;;17.10;82.10;;;;;;1865541;75;21097;-58
2022/05/24 09:21:32;;;;;;;4.45;2.58;;;17.00;82.40;;;;;;1874885;75;21176;-59
2022/05/24 09:24:14;;;;;;;4.83;2.60;;;16.90;82.60;;;;;;1892930;75;21008;-57
2022/05/24 09:27:05;;;;;;;3.75;2.12;;;16.80;82.50;;;;;;1864490;76;21175;-58
2022/05/24 09:30:12;;;;;;;3.62;2.52;;;16.90;82.70;;;;;;1865217;76;21168;-58
2022/05/24 09:32:47;;;;;;;4.97;2.47;;;16.90;83.30;;;;;;1843002;75;21809;-58
2022/05/24 09:35:25;;;;;;;5.97;3.65;;;17.00;82.90;;;;;;1864810;77;21107;-58
2022/05/24 09:38:08;;;;;;;4.78;1.92;;;17.10;82.90;;;;;;1865164;77;21078;-60
2022/05/24 09:40:51;;;;;;;2.40;1.90;;;17.20;82.80;;;;;;1865402;77;21113;-58
2022/05/24 09:43:35;;;;;;;2.10;1.90;;;17.20;82.80;;;;;;1863061;75;21360;-57
2022/05/24 09:46:23;;;;;;;2.50;2.15;;;17.30;83.00;;;;;;1865399;77;21106;-57
2022/05/24 09:48:59;;;;;;;10.18;2.77;;;17.30;83.10;;;;;;1840534;77;21074;-57
2022/05/24 09:51:43;;;;;;;2.40;2.20;;;17.30;83.30;;;;;;1865161;77;21078;-56
2022/05/24 09:54:24;;;;;;;2.25;2.02;;;17.20;83.30;;;;;;1863542;77;21468;-58
2022/05/24 09:57:14;;;;;;;3.62;2.05;;;17.30;83.20;;;;;;1863804;77;21497;-58
2022/05/24 09:59:47;;;;;;;1.50;1.40;;;17.20;83.00;;;;;;1861119;77;22126;-58
2022/05/24 10:02:28;;;;;;;4.12;1.50;;;17.30;83.00;;;;;;1861868;76;21152;-59
2022/05/24 10:04:58;;;;;;;4.28;1.98;;;17.30;82.50;;;;;;1864075;77;21090;-58
2022/05/24 10:07:30;;;;;;;3.65;2.05;;;17.30;82.50;;;;;;1865328;77;21015;-58
2022/05/24 10:10:17;;;;;;;2.87;1.85;;;17.30;82.80;;;;;;1865129;77;21088;-60
2022/05/24 10:13:06;;;;;;;2.02;1.85;;;17.40;83.00;;;;;;1865296;76;21089;-58
2022/05/24 10:15:45;;;;;;;2.83;2.58;;;17.30;82.50;;;;;;1864774;76;21035;-58
2022/05/24 10:18:34;;;;;;;1.85;1.75;;;17.30;82.20;;;;;;1863197;76;21571;-58
2022/05/24 10:21:21;;;;;;;3.15;1.98;;;17.30;82.40;;;;;;1815336;76;21019;-58
2022/05/24 10:24:06;;;;;;;4.12;3.00;;;17.30;82.40;;;;;;1866207;76;21086;-58
2022/05/24 10:26:56;;;;;;;5.50;2.73;;;17.20;81.60;;;;;;1865150;77;20988;-58
2022/05/24 10:29:51;;;;;;;4.67;2.95;;;17.10;81.90;;;;;;1866469;77;21454;-58
2022/05/24 10:38:40;;;;;;;;;;;17.10;82.30;;;;;;1867316;77;21074;-58
2022/05/24 10:41:14;;;;;;;8.95;6.87;;;17.20;82.50;;;;;;1864387;77;20205;-58
2022/05/24 10:44:01;;;;;;;4.65;3.22;;;17.20;82.00;;;;;;1864640;77;21047;-58
2022/05/24 10:46:45;;;;;;;3.87;2.17;;;17.30;81.80;;;;;;1864449;77;21517;-58
2022/05/24 10:49:29;;;;;;;3.52;2.60;;;17.40;81.60;;;;;;1864594;77;21047;-58
2022/05/24 10:52:02;;;;;;;2.80;2.60;;;17.50;81.90;;;;;;1843949;75;21106;-58
2022/05/24 10:54:45;;;;;;;2.20;2.00;;;17.60;82.10;;;;;;1864276;77;21512;-58
2022/05/24 10:57:17;;;;;;;1.82;1.60;;;17.70;82.20;;;;;;1864436;77;21079;-58
2022/05/24 11:00:07;;;;;;;2.60;1.57;;;17.90;82.90;;;;;;1864476;77;21506;-58
2022/05/24 11:03:03;;;;;;;3.42;1.98;;;18.00;82.40;;;;;;1864496;77;21125;-58
2022/05/24 11:05:36;;;;;;;1.60;1.50;;;18.10;82.30;;;;;;1794555;78;21098;-58
2022/05/24 11:08:24;;;;;;;3.25;2.12;;;18.20;81.20;;;;;;1793026;80;21607;-57
2022/05/24 11:10:54;;;;;;;3.05;1.47;;;18.20;79.90;;;;;;1825473;77;21027;-58
2022/05/24 11:13:32;;;;;;;1.92;1.72;;;18.20;79.20;;;;;;1864513;77;21051;-58
2022/05/24 11:16:05;;;;;;;2.52;1.80;;;18.20;79.50;;;;;;1860938;77;21572;-58
2022/05/24 11:18:37;;;;;;;1.70;1.60;;;18.20;79.10;;;;;;1864541;77;21188;-58
2022/05/24 11:21:24;;;;;;;2.02;1.80;;;18.10;79.30;;;;;;1864419;77;21556;-58
2022/05/24 11:24:05;;;;;;;2.10;1.80;;;18.10;80.30;;;;;;1864664;77;21057;-58
2022/05/24 11:26:39;;;;;;;4.37;2.20;;;18.00;77.70;;;;;;1864594;77;21067;-58
2022/05/24 11:29:33;;;;;;;3.87;1.90;;;17.80;75.60;;;;;;1864581;77;21485;-58
2022/05/24 11:32:07;;;;;;;2.83;1.92;;;17.50;71.90;;;;;;1804727;77;21072;-58
2022/05/24 11:34:42;;;;;;;5.42;2.22;;;17.20;72.70;;;;;;1864666;77;21047;-58
2022/05/24 11:37:30;;;;;;;;;;;17.00;73.10;;;;;;1875885;75;21141;-58
2022/05/24 11:40:18;;;;;;;5.08;1.92;;;16.70;72.20;;;;;;1889032;76;20172;-58
2022/05/24 11:42:49;;;;;;;2.02;1.85;;;16.50;73.30;;;;;;1888819;75;21062;-58
2022/05/24 11:45:32;;;;;;;2.70;1.70;;;16.40;74.30;;;;;;1888910;76;21019;-58
2022/05/24 11:48:10;;;;;;;4.85;1.82;;;16.30;75.10;;;;;;1888981;76;21498;-58
2022/05/24 11:50:42;;;;;;;2.65;2.27;;;16.10;75.80;;;;;;1889003;76;21039;-58
2022/05/24 11:53:20;;;;;;;2.67;2.17;;;16.00;76.90;;;;;;1887928;75;21544;-58
2022/05/24 11:56:00;;;;;;;3.50;2.98;;;15.80;78.00;;;;;;1887062;76;21200;-58
2022/05/24 11:58:35;;;;;;;14.68;5.95;;;15.70;78.70;;;;;;1888955;76;21062;-59
2022/05/24 12:01:19;;;;;;;9.13;4.78;;;15.70;78.90;;;;;;1888863;76;21078;-58
2022/05/24 12:10:22;;;;;;;3.50;2.58;;;15.60;80.20;;;;;;1888944;76;21124;-58
2022/05/24 12:13:06;;;;;;;3.83;2.00;;;15.40;80.20;;;;;;1888719;76;21075;-58
2022/05/24 12:15:40;;;;;;;2.58;2.33;;;15.40;80.30;;;;;;1889007;76;21035;-58
2022/05/24 12:18:12;;;;;;;3.47;2.33;;;15.30;80.50;;;;;;1889129;76;21098;-57
2022/05/24 12:20:46;;;;;;;2.20;2.00;;;15.20;80.90;;;;;;1888937;76;21041;-58
2022/05/24 12:23:36;;;;;;;6.12;2.40;;;15.30;81.50;;;;;;1888920;76;21035;-58
2022/05/24 12:26:12;;;;;;;3.42;2.20;;;15.40;81.60;;;;;;1889061;76;21110;-58
2022/05/24 12:28:43;;;;;;;3.75;2.37;;;15.50;81.50;;;;;;1888990;76;21470;-58
2022/05/24 12:31:24;;;;;;;4.17;2.20;;;15.60;81.60;;;;;;1888938;76;21556;-58
2022/05/24 12:34:14;;;;;;;2.62;1.70;;;15.70;81.50;;;;;;1889008;76;21109;-58
2022/05/24 12:36:51;;;;;;;2.50;1.85;;;15.80;80.90;;;;;;1889110;76;21059;-58
2022/05/24 12:39:20;;;;;;;;;;;15.80;81.10;;;;;;1891853;75;21075;-58
2022/05/24 12:41:58;;;;;;;2.08;1.62;;;15.90;81.60;;;;;;1888970;76;20227;-58
2022/05/24 12:44:48;;;;;;;2.85;2.52;;;16.00;81.50;;;;;;1886085;76;21067;-58
2022/05/24 12:47:19;;;;;;;2.75;1.80;;;16.00;81.70;;;;;;1887296;76;21067;-58
2022/05/24 12:49:57;;;;;;;2.45;1.87;;;16.20;81.70;;;;;;1889057;76;21067;-58
2022/05/24 12:52:29;;;;;;;2.72;1.90;;;16.20;81.40;;;;;;1888982;76;21126;-58
2022/05/24 12:55:03;;;;;;;2.00;1.72;;;16.40;81.90;;;;;;1888907;76;21532;-58
2022/05/24 12:57:37;;;;;;;2.35;2.10;;;16.40;81.00;;;;;;1889193;76;21490;-59
2022/05/24 13:00:21;;;;;;;2.15;1.90;;;16.50;80.60;;;;;;1888556;74;21059;-58
2022/05/24 13:02:52;;;;;;;2.40;2.20;;;16.60;80.50;;;;;;1888973;76;21109;-58
2022/05/24 13:05:29;;;;;;;3.15;2.25;;;16.60;80.40;;;;;;1887806;74;21058;-58
2022/05/24 13:07:58;;;;;;;;;;;16.70;80.70;;;;;;1891830;76;21098;-59
2022/05/24 13:10:39;;;;;;;3.92;2.10;;;16.80;80.80;;;;;;1888903;76;20133;-58
2022/05/24 13:13:18;;;;;;;2.90;2.33;;;16.80;80.60;;;;;;1888951;76;21043;-58
2022/05/24 13:15:53;;;;;;;2.08;1.90;;;16.90;80.60;;;;;;1888953;76;21075;-58
2022/05/24 13:18:23;;;;;;;;;;;17.00;80.40;;;;;;1891661;75;21051;-58
2022/05/24 13:20:58;;;;;;;3.87;2.25;;;17.10;80.90;;;;;;1888969;76;20137;-58
2022/05/24 13:23:39;;;;;;;5.75;2.55;;;17.20;80.10;;;;;;1889209;76;21047;-58
2022/05/24 13:26:10;;;;;;;3.33;2.05;;;17.20;79.90;;;;;;1888803;76;21043;-58
2022/05/24 13:28:53;;;;;;;3.75;2.15;;;17.30;79.70;;;;;;1888917;76;21602;-58
2022/05/24 13:34:27;;;;;;;4.70;2.40;;;17.30;79.80;;;;;;1889005;76;21075;-58
2022/05/24 13:36:58;;;;;;;2.45;1.70;;;17.20;79.40;;;;;;1888124;75;21044;-58
2022/05/24 13:39:46;;;;;;;1.92;1.60;;;17.20;79.10;;;;;;1896662;75;21046;-58
2022/05/24 13:42:24;;;;;;;2.10;1.90;;;17.20;79.30;;;;;;1898283;75;21003;-58
2022/05/24 13:45:09;;;;;;;3.60;2.35;;;17.20;79.30;;;;;;1898360;75;21066;-58
2022/05/24 13:47:41;;;;;;;2.73;2.10;;;17.30;79.30;;;;;;1898639;75;21114;-59
2022/05/24 13:50:27;;;;;;;4.40;3.72;;;17.40;78.60;;;;;;1898358;75;21056;-58
2022/05/24 13:53:02;;;;;;;2.62;2.10;;;17.50;77.50;;;;;;1898156;75;21040;-58
2022/05/24 13:55:38;;;;;;;4.25;2.42;;;17.60;77.10;;;;;;1897814;75;21016;-58
2022/05/24 13:58:09;;;;;;;2.75;2.55;;;17.60;77.50;;;;;;1898438;75;21020;-58
2022/05/24 14:00:54;;;;;;;4.60;3.05;;;17.60;77.60;;;;;;1893785;75;21071;-58
2022/05/24 14:03:24;;;;;;;4.08;2.65;;;17.60;76.60;;;;;;1897092;75;21008;-59
2022/05/24 14:06:07;;;;;;;5.17;2.90;;;17.50;77.20;;;;;;1896968;74;21041;-59
2022/05/24 14:08:37;;;;;;;3.37;2.77;;;17.50;77.60;;;;;;1898291;75;20976;-59